Terminal Aerodrome Forecast
Issued by NWS Twin Cities, MN

Home | Current Version | Previous Version | Text Only | Print | Product List | Glossary Off
Versions: 1 2 3 4 5 6 7 8 9 10 11 12 13 14 15 16 17 18 19 20 21

000
FTUS43 KMPX 131738
TAFSTC
TAF
KSTC 131738Z 1318/1418 33019G28KT P6SM BKN015
     FM131900 33019G27KT P6SM BKN020
     FM132200 33016G24KT P6SM BKN025
     FM140200 34009KT P6SM BKN030
     FM140400 33007KT P6SM BKN025
     FM140800 31005KT P6SM BKN015
     FM141700 31004KT P6SM BKN040=

USA.gov is the U.S. government's official web portal to all federal, state and local government web resources and services.